Time;durP1;ratioP1;P1;durP2;ratioP2;P2;SDS_P1;SDS_P2;PMS_P1;PMS_P2;Temp;Humidity;BMP_temperature;BMP_pressure;BME280_temperature;BME280_humidity;BME280_pressure;Samples;Min_cycle;Max_cycle;Signal;HPM_P1;HPM_P2
2021/01/12 00:02:05;;;;;;;1.50;1.40;;;;;;;3.37;96.90;99110.63;6115470;29;20262;-76
2021/01/12 00:05:11;;;;;;;1.63;1.30;;;;;;;3.54;96.86;99100.22;6112551;29;20211;-76
2021/01/12 00:08:18;;;;;;;1.10;1.10;;;;;;;3.53;96.18;99094.00;6117364;29;20210;-76
2021/01/12 00:11:21;;;;;;;1.50;1.20;;;;;;;3.40;97.55;99098.59;6108188;29;20211;-76
2021/01/12 00:14:33;;;;;;;1.40;0.90;;;;;;;3.44;97.25;99089.88;6115822;29;20512;-76
2021/01/12 00:17:38;;;;;;;3.80;1.33;;;;;;;3.37;96.85;99077.47;6110634;29;20205;-76
2021/01/12 00:20:42;;;;;;;1.00;1.00;;;;;;;3.51;97.00;99085.28;6110294;29;20205;-75
2021/01/12 00:23:46;;;;;;;2.60;1.20;;;;;;;3.38;97.05;99079.97;6116476;29;20199;-76
2021/01/12 00:26:50;;;;;;;1.20;1.10;;;;;;;3.51;96.86;99073.69;6117158;29;20279;-76
2021/01/12 00:29:53;;;;;;;1.00;1.00;;;;;;;3.57;96.12;99068.25;6114779;29;20602;-75
2021/01/12 00:32:57;;;;;;;1.07;0.97;;;;;;;3.41;96.36;99074.16;6115297;29;20238;-76
2021/01/12 00:36:04;;;;;;;1.00;1.00;;;;;;;3.33;97.43;99066.28;6115602;29;20618;-75
2021/01/12 00:39:08;;;;;;;1.00;1.00;;;;;;;3.21;97.62;99061.78;6108889;29;20691;-76
2021/01/12 00:42:12;;;;;;;1.00;1.00;;;;;;;3.50;96.49;99056.66;6091281;29;20211;-77
2021/01/12 00:45:15;;;;;;;1.00;1.00;;;;;;;3.36;96.31;99065.88;6116522;29;20304;-76
2021/01/12 00:48:20;;;;;;;1.17;1.17;;;;;;;3.29;97.28;99064.25;6121086;29;20206;-76
2021/01/12 00:51:32;;;;;;;0.90;0.90;;;;;;;3.32;96.99;99051.16;6098934;29;20320;-76
2021/01/12 00:54:36;;;;;;;0.93;0.93;;;;;;;3.42;97.02;99054.22;6111489;29;20270;-75
2021/01/12 00:57:39;;;;;;;1.10;1.00;;;;;;;3.20;97.54;99050.16;6117528;29;20279;-76
2021/01/12 01:00:44;;;;;;;1.43;1.33;;;;;;;3.10;97.59;99044.41;6120210;29;20297;-76
2021/01/12 01:03:48;;;;;;;1.63;1.53;;;;;;;3.19;98.50;99048.50;6107364;29;20212;-76
2021/01/12 01:06:51;;;;;;;1.67;1.57;;;;;;;3.16;98.10;99038.16;6109888;29;20646;-77
2021/01/12 01:09:54;;;;;;;1.50;1.40;;;;;;;3.05;98.86;99036.13;6115401;29;20199;-75
2021/01/12 01:12:58;;;;;;;1.53;1.43;;;;;;;3.12;98.44;99031.53;6112110;29;20215;-78
2021/01/12 01:16:01;;;;;;;2.13;1.43;;;;;;;2.99;98.25;99026.19;6108244;29;20223;-75
2021/01/12 01:19:06;;;;;;;1.90;1.30;;;;;;;3.00;98.80;99028.69;6102958;29;20320;-76
2021/01/12 01:22:11;;;;;;;1.40;1.30;;;;;;;3.07;98.64;99017.88;6115703;29;20666;-76
2021/01/12 01:25:15;;;;;;;1.67;1.13;;;;;;;3.18;97.96;99025.31;6116211;29;20223;-75
2021/01/12 01:28:20;;;;;;;1.40;1.10;;;;;;;3.18;98.36;99011.84;6113295;29;20565;-76
2021/01/12 01:31:24;;;;;;;3.17;1.50;;;;;;;3.05;98.90;99010.03;6103258;29;20814;-76
2021/01/12 01:34:28;;;;;;;1.77;1.67;;;;;;;3.25;98.43;99015.31;6117273;29;20199;-75
2021/01/12 01:37:35;;;;;;;1.30;1.30;;;;;;;3.15;97.55;99005.00;6110717;29;20247;-77
2021/01/12 01:40:38;;;;;;;1.53;1.43;;;;;;;3.13;99.07;99009.75;6107449;29;20189;-76
2021/01/12 01:43:41;;;;;;;2.13;1.23;;;;;;;3.30;98.41;99001.19;6117232;29;20203;-76
2021/01/12 01:46:45;;;;;;;1.60;1.50;;;;;;;3.23;97.19;99001.25;6110535;29;20214;-76
2021/01/12 01:49:49;;;;;;;1.70;1.60;;;;;;;3.20;97.71;99007.06;6119876;29;20214;-76
2021/01/12 01:52:53;;;;;;;3.00;1.30;;;;;;;3.19;97.87;98991.91;6111574;29;20528;-76
2021/01/12 01:55:59;;;;;;;1.10;1.10;;;;;;;3.25;97.79;98995.63;6112702;29;20204;-75
2021/01/12 01:59:03;;;;;;;1.03;1.03;;;;;;;3.18;98.57;98990.28;6107154;29;20649;-76
2021/01/12 02:02:07;;;;;;;1.37;1.10;;;;;;;3.04;98.87;98983.28;6108045;29;20193;-75
2021/01/12 02:05:14;;;;;;;2.17;1.00;;;;;;;3.11;98.94;98979.50;6116109;29;20325;-75
2021/01/12 02:08:23;;;;;;;1.40;1.30;;;;;;;3.02;98.86;98982.66;6105794;29;20264;-75
2021/01/12 02:11:29;;;;;;;1.00;1.00;;;;;;;2.99;98.67;98975.00;6113940;29;20254;-75
2021/01/12 02:14:38;;;;;;;1.17;1.13;;;;;;;3.00;98.96;98968.59;6115339;29;20200;-75
2021/01/12 02:17:43;;;;;;;1.03;1.00;;;;;;;3.03;98.95;98957.41;6112898;29;20665;-77
2021/01/12 02:20:48;;;;;;;1.00;1.00;;;;;;;3.12;98.50;98956.09;6112349;29;20222;-75
2021/01/12 02:23:54;;;;;;;0.93;0.93;;;;;;;3.07;98.81;98953.22;6112211;29;20334;-74
2021/01/12 02:26:58;;;;;;;1.13;1.13;;;;;;;2.94;98.99;98953.28;6120776;29;20214;-75
2021/01/12 02:30:01;;;;;;;3.13;1.00;;;;;;;3.12;98.04;98956.09;6103915;29;20205;-75
2021/01/12 02:33:07;;;;;;;1.20;1.10;;;;;;;3.09;97.96;98956.53;6107291;29;20578;-76
2021/01/12 02:36:15;;;;;;;1.00;1.00;;;;;;;3.06;98.04;98951.56;6115720;29;21361;-76
2021/01/12 02:39:20;;;;;;;1.00;1.00;;;;;;;2.92;98.92;98949.97;6103602;29;20237;-75
2021/01/12 02:42:23;;;;;;;0.87;0.87;;;;;;;3.01;97.78;98949.50;6112055;29;20241;-78
2021/01/12 02:45:27;;;;;;;0.90;0.90;;;;;;;2.98;97.00;98941.84;6112351;29;20756;-75
2021/01/12 02:48:30;;;;;;;1.70;0.90;;;;;;;3.01;98.29;98932.50;6111811;29;20196;-76
2021/01/12 02:51:35;;;;;;;3.10;1.00;;;;;;;3.05;97.25;98949.91;6106122;29;20200;-76
2021/01/12 02:54:39;;;;;;;1.07;1.07;;;;;;;2.88;98.15;98936.09;6110876;29;20275;-76
2021/01/12 02:57:44;;;;;;;1.03;1.03;;;;;;;2.98;98.19;98938.31;6109136;29;20225;-76
2021/01/12 03:00:51;;;;;;;1.20;1.20;;;;;;;2.84;98.17;98942.13;6119386;29;20202;-76
2021/01/12 03:03:56;;;;;;;2.23;1.10;;;;;;;2.89;97.92;98945.00;6106647;29;20582;-76
2021/01/12 03:06:59;;;;;;;1.10;1.10;;;;;;;2.72;98.38;98931.22;6110631;29;20244;-76
2021/01/12 03:10:04;;;;;;;0.80;0.80;;;;;;;2.94;98.23;98931.72;6108242;29;20203;-77
2021/01/12 03:13:09;;;;;;;1.07;0.90;;;;;;;3.14;96.82;98927.06;6119083;29;20275;-77
2021/01/12 03:16:12;;;;;;;1.30;1.20;;;;;;;2.92;98.26;98914.97;6111871;29;20205;-76
2021/01/12 03:19:15;;;;;;;1.10;1.10;;;;;;;2.91;97.38;98916.00;6119552;29;20295;-78
2021/01/12 03:22:19;;;;;;;1.20;1.10;;;;;;;2.88;97.62;98916.41;6114400;29;20635;-77
2021/01/12 03:25:23;;;;;;;1.07;1.03;;;;;;;2.77;97.15;98925.19;6113860;29;20568;-76
2021/01/12 03:28:27;;;;;;;1.00;1.00;;;;;;;2.92;97.33;98925.72;6100642;29;20207;-76
2021/01/12 03:31:30;;;;;;;0.93;0.93;;;;;;;2.77;98.76;98919.78;6114518;29;20210;-76
2021/01/12 03:34:34;;;;;;;1.07;1.07;;;;;;;2.60;98.28;98919.44;6111210;29;20197;-76
2021/01/12 03:37:37;;;;;;;1.53;1.07;;;;;;;2.56;98.67;98914.69;6112372;29;20278;-77
2021/01/12 03:40:41;;;;;;;0.80;0.80;;;;;;;2.65;97.95;98910.72;6110467;29;20190;-77
2021/01/12 03:43:45;;;;;;;1.33;1.00;;;;;;;2.78;97.73;98911.50;6112455;29;20594;-77
2021/01/12 03:46:49;;;;;;;0.80;0.80;;;;;;;2.95;96.50;98901.06;6111857;29;20214;-76
2021/01/12 03:49:54;;;;;;;0.60;0.60;;;;;;;2.95;95.95;98903.75;6114565;29;20645;-76
2021/01/12 03:52:57;;;;;;;0.80;0.80;;;;;;;2.74;96.91;98898.69;6118647;29;20199;-76
2021/01/12 03:56:01;;;;;;;0.70;0.70;;;;;;;2.58;96.86;98891.06;6108235;29;20577;-76
2021/01/12 03:59:05;;;;;;;0.80;0.80;;;;;;;2.78;96.09;98894.50;6119524;29;20238;-76
2021/01/12 04:02:09;;;;;;;0.83;0.70;;;;;;;2.53;96.14;98900.63;6109546;29;20394;-75
2021/01/12 04:05:15;;;;;;;0.90;0.70;;;;;;;2.48;96.63;98895.03;6100010;29;20294;-75
2021/01/12 04:08:18;;;;;;;0.80;0.80;;;;;;;2.59;96.27;98884.66;6091027;29;20306;-75
2021/01/12 04:11:22;;;;;;;0.80;0.80;;;;;;;2.51;95.80;98883.88;6116199;29;20207;-77
2021/01/12 04:14:26;;;;;;;0.60;0.60;;;;;;;2.46;96.45;98891.75;6115546;29;20248;-75
2021/01/12 04:17:29;;;;;;;0.70;0.70;;;;;;;2.45;95.76;98879.31;6111477;29;20249;-75
2021/01/12 04:20:32;;;;;;;0.70;0.70;;;;;;;2.50;96.25;98882.19;6119648;29;20206;-76
2021/01/12 04:23:35;;;;;;;0.60;0.60;;;;;;;2.60;94.81;98870.13;6113022;29;20215;-76
2021/01/12 04:26:40;;;;;;;0.73;0.73;;;;;;;2.78;94.17;98870.25;6113030;29;20219;-76
2021/01/12 04:29:44;;;;;;;0.70;0.70;;;;;;;2.83;93.64;98865.06;6122297;29;20254;-76
2021/01/12 04:32:47;;;;;;;0.70;0.70;;;;;;;2.84;92.63;98867.56;6119170;29;20202;-76
2021/01/12 04:35:50;;;;;;;0.80;0.80;;;;;;;2.92;92.30;98863.78;6107586;29;20204;-76
2021/01/12 04:38:53;;;;;;;0.80;0.80;;;;;;;2.80;91.46;98870.91;6114656;29;20608;-76
2021/01/12 04:41:58;;;;;;;0.90;0.90;;;;;;;2.37;94.12;98866.09;6121988;29;20196;-76
2021/01/12 04:45:03;;;;;;;0.90;0.90;;;;;;;2.33;94.89;98869.44;6105679;29;20669;-76
2021/01/12 04:48:10;;;;;;;0.93;0.93;;;;;;;2.27;94.52;98865.72;6105940;29;20229;-76
2021/01/12 04:51:14;;;;;;;1.10;0.93;;;;;;;2.10;96.48;98869.91;6115702;29;20199;-76
2021/01/12 04:54:18;;;;;;;1.97;0.90;;;;;;;1.97;96.67;98867.25;6107194;29;20590;-76
2021/01/12 04:57:22;;;;;;;0.80;0.80;;;;;;;1.96;97.16;98868.25;6115976;29;20293;-77
2021/01/12 05:00:28;;;;;;;0.90;0.90;;;;;;;2.01;96.59;98870.31;6113629;29;20907;-77
2021/01/12 05:03:32;;;;;;;0.80;0.80;;;;;;;1.89;97.05;98872.81;6113443;29;20356;-76
2021/01/12 05:06:38;;;;;;;1.30;1.10;;;;;;;1.78;97.67;98876.97;6117321;29;20568;-77
2021/01/12 05:09:42;;;;;;;1.97;1.87;;;;;;;1.94;97.41;98875.72;6121216;29;20203;-76
2021/01/12 05:12:47;;;;;;;2.13;1.00;;;;;;;1.98;96.75;98881.53;6109744;29;20205;-74
2021/01/12 05:15:51;;;;;;;2.87;1.00;;;;;;;1.86;97.28;98882.13;6112746;29;20201;-76
2021/01/12 05:18:56;;;;;;;0.97;0.97;;;;;;;1.96;96.51;98879.03;6108431;29;20189;-75
2021/01/12 05:22:02;;;;;;;0.90;0.90;;;;;;;2.02;96.48;98888.94;6106470;29;20193;-74
2021/01/12 05:25:21;;;;;;;1.63;1.60;;;;;;;2.07;96.30;98891.00;6107250;29;20252;-75
2021/01/12 05:28:40;;;;;;;1.60;0.80;;;;;;;2.17;95.29;98903.00;6110901;29;20224;-75
2021/01/12 05:31:45;;;;;;;0.80;0.80;;;;;;;2.22;94.80;98900.50;6111273;29;20505;-74
2021/01/12 05:34:53;;;;;;;1.00;1.00;;;;;;;2.28;94.44;98899.66;6119796;29;20708;-75
2021/01/12 05:38:02;;;;;;;1.10;1.10;;;;;;;2.30;93.33;98912.91;6115020;29;20270;-75
2021/01/12 05:41:06;;;;;;;0.93;0.93;;;;;;;2.32;93.63;98911.66;6113295;29;20204;-75
2021/01/12 05:44:15;;;;;;;1.17;1.17;;;;;;;2.41;93.38;98894.22;6110911;29;20243;-76
2021/01/12 05:47:18;;;;;;;2.17;1.00;;;;;;;2.47;92.27;98898.75;6119052;29;20230;-76
2021/01/12 05:50:22;;;;;;;0.80;0.80;;;;;;;2.29;93.42;98911.22;6108045;29;20200;-75
2021/01/12 05:53:42;;;;;;;0.70;0.70;;;;;;;2.25;93.15;98905.47;6105580;29;20295;-77
2021/01/12 05:56:49;;;;;;;0.70;0.70;;;;;;;1.83;94.76;98906.75;6108742;29;20270;-76
2021/01/12 06:00:01;;;;;;;0.70;0.70;;;;;;;2.19;94.06;98914.34;6109764;29;20196;-75
2021/01/12 06:03:23;;;;;;;0.80;0.80;;;;;;;2.17;93.86;98908.38;6122568;29;20287;-76
2021/01/12 06:06:26;;;;;;;0.60;0.60;;;;;;;2.26;92.85;98912.47;6117616;29;20246;-77
2021/01/12 06:09:30;;;;;;;1.00;1.00;;;;;;;2.28;93.21;98923.88;6109192;29;20207;-74
2021/01/12 06:12:36;;;;;;;0.70;0.70;;;;;;;2.41;92.54;98926.50;6108693;29;20216;-75
2021/01/12 06:15:43;;;;;;;1.07;0.90;;;;;;;2.36;92.39;98929.00;6118493;29;20281;-75
2021/01/12 06:19:05;;;;;;;0.87;0.87;;;;;;;2.43;92.55;98935.22;6116051;29;20577;-81
2021/01/12 06:22:18;;;;;;;0.80;0.80;;;;;;;2.34;91.87;98947.22;6111673;29;20239;-76
2021/01/12 06:25:22;;;;;;;0.90;0.90;;;;;;;2.30;93.00;98945.19;6108663;29;20212;-76
2021/01/12 06:28:26;;;;;;;0.80;0.80;;;;;;;2.35;93.10;98954.28;6106748;29;20232;-76
2021/01/12 06:31:31;;;;;;;0.70;0.70;;;;;;;2.45;91.97;98949.28;6111482;29;20220;-76
2021/01/12 06:34:35;;;;;;;0.70;0.70;;;;;;;2.24;92.38;98968.38;6109107;29;20565;-75
2021/01/12 06:37:40;;;;;;;0.70;0.70;;;;;;;1.58;95.60;98964.03;6108655;29;20238;-74
2021/01/12 06:40:49;;;;;;;0.90;0.90;;;;;;;1.98;96.55;98965.69;6106401;29;20194;-78
2021/01/12 06:43:54;;;;;;;2.93;0.90;;;;;;;2.03;95.52;98957.03;6106863;29;20402;-75
2021/01/12 06:46:58;;;;;;;0.70;0.70;;;;;;;2.07;95.03;98969.84;6120964;28;20662;-75
2021/01/12 06:50:08;;;;;;;0.80;0.80;;;;;;;2.05;95.02;98963.84;6139718;28;20284;-75
2021/01/12 06:53:13;;;;;;;0.93;0.93;;;;;;;2.19;94.62;98962.78;6144010;28;20202;-75
2021/01/12 06:56:16;;;;;;;0.77;0.77;;;;;;;2.18;94.28;98961.16;6130213;29;20308;-75
2021/01/12 06:59:20;;;;;;;0.80;0.80;;;;;;;1.78;93.31;98972.94;6136435;29;20203;-75
2021/01/12 07:02:26;;;;;;;0.90;0.90;;;;;;;2.01;94.47;98978.72;6138013;28;20295;-77
2021/01/12 07:05:37;;;;;;;1.00;1.00;;;;;;;2.12;94.51;98980.81;6135384;29;20662;-76
2021/01/12 07:08:46;;;;;;;0.93;0.93;;;;;;;2.14;93.54;98994.88;6140910;29;20322;-75
2021/01/12 07:11:49;;;;;;;0.90;0.90;;;;;;;2.06;94.09;99003.13;6137288;29;20193;-75
2021/01/12 07:14:54;;;;;;;0.80;0.80;;;;;;;2.11;93.59;99000.66;6114801;29;20259;-77
2021/01/12 07:17:59;;;;;;;1.00;1.00;;;;;;;2.16;92.92;99003.53;6135741;29;20255;-76
2021/01/12 07:21:02;;;;;;;1.63;1.00;;;;;;;1.55;93.86;99002.88;6141039;29;20289;-75
2021/01/12 07:24:17;;;;;;;1.10;1.10;;;;;;;1.64;95.84;99015.13;6139585;29;20679;-76
2021/01/12 07:27:21;;;;;;;1.10;1.10;;;;;;;1.78;94.61;99016.78;6134291;29;20219;-79
2021/01/12 07:30:26;;;;;;;1.00;1.00;;;;;;;1.94;92.83;99026.31;6135952;28;20239;-74
2021/01/12 07:33:31;;;;;;;1.00;1.00;;;;;;;1.90;93.50;99025.03;6141311;28;20701;-75
2021/01/12 07:36:34;;;;;;;1.03;1.03;;;;;;;1.94;92.42;99025.47;6140513;28;20231;-76
2021/01/12 07:39:42;;;;;;;0.90;0.90;;;;;;;1.99;91.62;99034.59;6145500;29;20257;-75
2021/01/12 07:42:52;;;;;;;1.00;1.00;;;;;;;1.91;91.46;99034.78;6132943;28;20680;-75
2021/01/12 07:45:56;;;;;;;1.10;1.10;;;;;;;1.42;91.27;99047.69;6126108;29;20287;-76
2021/01/12 07:49:01;;;;;;;0.93;0.93;;;;;;;1.69;89.93;99049.44;6144896;28;20218;-75
2021/01/12 07:52:05;;;;;;;0.90;0.90;;;;;;;1.61;88.87;99046.94;6137649;28;20214;-75
2021/01/12 07:55:09;;;;;;;0.90;0.90;;;;;;;1.63;89.11;99055.63;6133339;29;20670;-75
2021/01/12 07:58:14;;;;;;;1.03;1.03;;;;;;;1.78;89.00;99064.34;6147753;28;20298;-75
2021/01/12 08:01:25;;;;;;;1.00;1.00;;;;;;;1.81;88.35;99064.78;6137208;29;20283;-75
2021/01/12 08:04:31;;;;;;;1.00;1.00;;;;;;;1.89;87.89;99071.81;6134206;29;20200;-75
2021/01/12 08:07:34;;;;;;;1.00;1.00;;;;;;;1.64;88.81;99078.78;6140127;29;20284;-76
2021/01/12 08:10:39;;;;;;;0.80;0.80;;;;;;;1.23;87.02;99098.44;6137285;29;20216;-75
2021/01/12 08:13:42;;;;;;;0.90;0.90;;;;;;;0.99;84.25;99109.69;6138805;28;20208;-75
2021/01/12 08:16:49;;;;;;;0.80;0.80;;;;;;;1.21;85.25;99113.94;6135630;29;20661;-76
2021/01/12 08:19:54;;;;;;;0.90;0.90;;;;;;;1.05;84.09;99122.31;6138912;28;20209;-75
2021/01/12 08:22:57;;;;;;;0.90;0.90;;;;;;;1.10;84.74;99116.38;6135574;29;20614;-76
2021/01/12 08:26:09;;;;;;;0.90;0.90;;;;;;;1.12;85.52;99133.94;6132636;29;20199;-75
2021/01/12 08:29:13;;;;;;;2.47;0.90;;;;;;;1.24;84.15;99143.09;6132122;28;20225;-76
2021/01/12 08:32:20;;;;;;;0.90;0.90;;;;;;;0.92;82.46;99143.75;6136023;29;20266;-75
2021/01/12 08:35:28;;;;;;;3.43;0.90;;;;;;;1.11;81.77;99159.13;6133568;29;20204;-76
2021/01/12 08:38:34;;;;;;;0.80;0.80;;;;;;;1.12;81.75;99155.44;6131868;29;20299;-75
2021/01/12 08:41:41;;;;;;;0.80;0.80;;;;;;;0.98;81.17;99159.03;6134687;29;20211;-75
2021/01/12 08:44:45;;;;;;;0.80;0.80;;;;;;;0.93;81.33;99169.53;6135075;29;20294;-75
2021/01/12 08:47:48;;;;;;;0.80;0.80;;;;;;;0.82;78.97;99178.16;6137621;28;20253;-75
2021/01/12 08:50:55;;;;;;;1.10;1.10;;;;;;;0.67;80.29;99198.84;6134640;29;20229;-76
2021/01/12 08:53:59;;;;;;;0.90;0.90;;;;;;;0.55;79.21;99195.88;6143508;29;20280;-75
2021/01/12 08:57:05;;;;;;;0.87;0.87;;;;;;;0.76;79.92;99191.50;6129984;29;20229;-75
2021/01/12 09:00:12;;;;;;;0.90;0.90;;;;;;;0.69;79.85;99212.94;6126019;29;20199;-75
2021/01/12 09:03:21;;;;;;;0.90;0.90;;;;;;;0.66;76.96;99218.69;6135677;29;20397;-76
2021/01/12 09:06:25;;;;;;;0.90;0.90;;;;;;;0.67;78.84;99225.69;6138660;29;20202;-75
2021/01/12 09:09:28;;;;;;;0.90;0.90;;;;;;;0.58;80.59;99232.22;6139140;29;20468;-75
2021/01/12 09:12:43;;;;;;;0.90;0.90;;;;;;;0.27;77.58;99250.47;6141191;28;20200;-75
2021/01/12 09:15:51;;;;;;;0.97;0.97;;;;;;;0.19;78.93;99254.09;6141954;28;20555;-75
2021/01/12 09:18:54;;;;;;;0.90;0.90;;;;;;;0.22;78.48;99258.25;6147396;28;20248;-78
2021/01/12 09:22:07;;;;;;;0.93;0.93;;;;;;;0.25;76.97;99268.63;6127934;28;20208;-75
2021/01/12 09:25:12;;;;;;;1.00;1.00;;;;;;;0.19;79.49;99264.84;6133830;29;20199;-76
2021/01/12 09:28:26;;;;;;;1.00;1.00;;;;;;;0.18;79.65;99268.53;6131080;29;20211;-80
2021/01/12 09:31:29;;;;;;;0.90;0.90;;;;;;;0.26;78.66;99280.97;6138270;28;20212;-76
2021/01/12 09:34:32;;;;;;;1.93;1.10;;;;;;;0.15;79.46;99276.97;6144121;29;20289;-75
2021/01/12 09:37:36;;;;;;;1.30;1.30;;;;;;;0.21;78.34;99294.13;6134424;29;20249;-75
2021/01/12 09:40:40;;;;;;;1.20;1.20;;;;;;;0.00;76.86;99303.78;6124184;29;20239;-76
2021/01/12 09:43:44;;;;;;;1.00;1.00;;;;;;;-0.16;76.72;99309.38;6130498;29;20285;-76
2021/01/12 09:46:47;;;;;;;1.20;1.10;;;;;;;0.10;77.33;99298.16;6135638;29;20218;-77
2021/01/12 09:49:51;;;;;;;1.27;1.27;;;;;;;0.08;77.50;99299.34;6139979;29;20585;-79
2021/01/12 09:52:55;;;;;;;1.10;1.10;;;;;;;0.07;78.46;99324.50;6134082;29;20209;-78
2021/01/12 09:55:58;;;;;;;1.23;1.23;;;;;;;-0.14;77.13;99323.41;6142184;28;20205;-76
2021/01/12 09:59:02;;;;;;;1.03;1.03;;;;;;;0.05;78.42;99323.84;6139777;28;20207;-76
2021/01/12 10:02:05;;;;;;;1.00;1.00;;;;;;;-0.06;77.49;99326.00;6141034;28;20237;-76
2021/01/12 10:05:11;;;;;;;4.43;1.20;;;;;;;0.17;77.18;99338.44;6133305;29;20285;-75
2021/01/12 10:08:15;;;;;;;1.00;1.00;;;;;;;-0.41;77.70;99337.41;6137467;28;20222;-75
2021/01/12 10:11:20;;;;;;;1.00;1.00;;;;;;;-0.43;76.67;99355.53;6131089;29;20670;-75
2021/01/12 10:14:25;;;;;;;1.10;1.10;;;;;;;-0.52;77.95;99362.00;6126277;28;20207;-76
2021/01/12 10:17:28;;;;;;;0.90;0.90;;;;;;;-0.67;77.28;99358.47;6126856;29;20216;-77
2021/01/12 10:20:31;;;;;;;1.30;1.30;;;;;;;-0.54;79.42;99364.03;6131768;28;20198;-76
2021/01/12 10:23:35;;;;;;;1.00;1.00;;;;;;;-0.71;78.57;99374.03;6130638;28;20652;-75
2021/01/12 10:26:39;;;;;;;1.30;1.30;;;;;;;-0.46;79.72;99371.97;6138011;28;20196;-75
2021/01/12 10:29:43;;;;;;;1.50;1.10;;;;;;;-0.30;78.84;99382.53;6133367;29;20301;-76
2021/01/12 10:32:47;;;;;;;1.13;1.13;;;;;;;-0.62;78.45;99372.13;6140352;28;20607;-76
2021/01/12 10:35:50;;;;;;;1.27;1.20;;;;;;;-0.82;77.72;99381.66;6142711;28;20257;-76
2021/01/12 10:38:54;;;;;;;1.20;1.20;;;;;;;-0.49;78.25;99383.06;6132762;29;20233;-76
2021/01/12 10:42:05;;;;;;;1.20;1.20;;;;;;;-0.48;78.76;99400.78;6143307;29;20522;-77
2021/01/12 10:45:11;;;;;;;1.50;1.50;;;;;;;-0.41;78.22;99401.72;6130788;29;20613;-75
2021/01/12 10:48:16;;;;;;;1.40;1.40;;;;;;;-0.59;77.72;99416.47;6135306;29;20517;-77
2021/01/12 10:51:22;;;;;;;1.13;1.13;;;;;;;-0.54;79.15;99401.53;6134890;28;20202;-76
2021/01/12 10:54:27;;;;;;;1.20;1.20;;;;;;;-0.60;78.71;99409.44;6140507;29;20196;-77
2021/01/12 10:57:30;;;;;;;1.20;1.20;;;;;;;-0.49;79.96;99425.94;6133012;29;20224;-76
2021/01/12 11:00:34;;;;;;;1.10;1.10;;;;;;;-0.45;79.68;99427.22;6132363;29;20323;-77
2021/01/12 11:03:39;;;;;;;1.20;1.20;;;;;;;-0.49;78.73;99425.94;6131981;29;20207;-76
2021/01/12 11:06:43;;;;;;;1.10;1.10;;;;;;;-0.40;78.06;99438.25;6135603;29;20351;-76
2021/01/12 11:09:48;;;;;;;1.00;1.00;;;;;;;-0.44;79.45;99444.16;6143099;29;20251;-75
2021/01/12 11:12:53;;;;;;;1.20;1.20;;;;;;;-0.51;77.38;99449.38;6130052;29;20286;-76
2021/01/12 11:15:57;;;;;;;1.07;1.07;;;;;;;-0.65;78.48;99452.84;6140969;29;20190;-76
2021/01/12 11:19:02;;;;;;;1.20;1.20;;;;;;;-0.41;76.58;99454.50;6133169;29;20205;-75
2021/01/12 11:22:05;;;;;;;1.00;1.00;;;;;;;-0.39;77.35;99458.66;6132146;29;20198;-75
2021/01/12 11:25:12;;;;;;;1.00;1.00;;;;;;;-0.55;77.14;99464.16;6132438;29;20670;-76
2021/01/12 11:28:15;;;;;;;1.00;1.00;;;;;;;-0.69;76.85;99451.53;6132674;29;20225;-76
2021/01/12 11:31:19;;;;;;;1.03;1.03;;;;;;;-0.52;76.42;99458.44;6139591;29;20573;-76
2021/01/12 11:34:23;;;;;;;1.17;1.10;;;;;;;-0.54;76.79;99454.28;6134003;28;20306;-76
2021/01/12 11:37:26;;;;;;;1.20;1.20;;;;;;;-0.63;78.39;99458.84;6134674;29;20224;-75
2021/01/12 11:40:30;;;;;;;0.97;0.97;;;;;;;-0.53;77.74;99455.91;6125227;29;20575;-75
2021/01/12 11:43:35;;;;;;;1.13;1.13;;;;;;;-0.52;77.09;99463.78;6132664;29;20641;-75
2021/01/12 11:46:38;;;;;;;0.80;0.80;;;;;;;-0.75;77.15;99465.66;6144414;29;20203;-76
2021/01/12 11:49:42;;;;;;;1.40;1.30;;;;;;;-0.53;77.78;99467.47;6133282;29;20223;-76
2021/01/12 11:52:45;;;;;;;1.20;1.20;;;;;;;-0.56;76.33;99467.81;6137698;29;20235;-76
2021/01/12 11:55:50;;;;;;;1.23;1.23;;;;;;;-0.52;75.83;99461.13;6136860;29;20307;-75
2021/01/12 11:58:53;;;;;;;1.07;1.07;;;;;;;-0.40;75.09;99461.50;6141615;29;20215;-77
2021/01/12 12:01:57;;;;;;;2.10;1.00;;;;;;;-0.62;74.96;99463.22;6141130;29;20720;-75
2021/01/12 12:05:01;;;;;;;1.17;1.17;;;;;;;-0.59;75.59;99456.66;6139607;29;20208;-78
2021/01/12 12:08:05;;;;;;;1.37;1.27;;;;;;;-0.47;75.85;99466.78;6138929;28;20196;-76
2021/01/12 12:11:11;;;;;;;1.10;1.10;;;;;;;-0.72;76.24;99467.97;6142245;29;20378;-77
2021/01/12 12:14:15;;;;;;;1.20;1.20;;;;;;;-0.57;77.13;99471.53;6150226;28;20197;-76
2021/01/12 12:17:19;;;;;;;1.00;1.00;;;;;;;-0.64;74.60;99481.28;6144174;29;20201;-76
2021/01/12 12:20:23;;;;;;;1.40;1.30;;;;;;;-0.88;77.48;99468.06;6139167;29;20209;-78
2021/01/12 12:23:27;;;;;;;1.97;1.07;;;;;;;-0.64;75.56;99475.91;6143205;28;20208;-75
2021/01/12 12:26:31;;;;;;;1.10;1.00;;;;;;;-0.60;77.18;99476.41;6135177;29;20322;-76
2021/01/12 12:29:34;;;;;;;1.30;1.30;;;;;;;-0.69;76.46;99478.31;6135894;29;20218;-75
2021/01/12 12:32:39;;;;;;;1.10;1.10;;;;;;;-0.79;75.57;99489.25;6135719;29;20323;-75
2021/01/12 12:35:42;;;;;;;0.93;0.93;;;;;;;-0.83;76.71;99487.13;6139251;29;20572;-74
2021/01/12 12:38:45;;;;;;;2.50;0.93;;;;;;;-0.62;75.89;99506.06;6132215;29;20340;-75
2021/01/12 12:41:49;;;;;;;1.70;1.20;;;;;;;-0.59;75.00;99494.97;6145316;29;20596;-74
2021/01/12 12:44:53;;;;;;;1.30;1.30;;;;;;;-0.55;74.26;99501.66;6129966;29;20206;-74
2021/01/12 12:47:59;;;;;;;1.30;1.30;;;;;;;-0.48;73.23;99518.69;6128329;29;20201;-75
2021/01/12 12:51:03;;;;;;;1.10;1.10;;;;;;;-0.62;74.37;99516.78;6135365;29;20306;-76
2021/01/12 12:54:09;;;;;;;1.23;1.23;;;;;;;-0.90;75.27;99512.94;6134623;29;20204;-75
2021/01/12 12:57:13;;;;;;;1.03;1.03;;;;;;;-0.70;76.77;99522.19;6141114;29;20291;-74
2021/01/12 13:00:20;;;;;;;1.27;1.27;;;;;;;-0.64;74.62;99524.97;6138988;29;20228;-75
2021/01/12 13:03:27;;;;;;;1.17;1.17;;;;;;;-0.63;75.67;99533.84;6134165;29;20198;-75
2021/01/12 13:06:31;;;;;;;1.13;1.13;;;;;;;-0.69;75.06;99537.22;6134032;29;20193;-74
2021/01/12 13:09:35;;;;;;;1.33;1.33;;;;;;;-0.90;77.93;99545.06;6126769;29;20212;-75
2021/01/12 13:12:39;;;;;;;1.47;1.47;;;;;;;-1.07;79.42;99546.97;6138676;29;20328;-75
2021/01/12 13:15:43;;;;;;;1.03;1.03;;;;;;;-0.94;79.04;99554.44;6136444;29;20228;-75
2021/01/12 13:18:57;;;;;;;1.10;1.10;;;;;;;-0.91;79.08;99552.25;6136967;28;20586;-75
2021/01/12 13:22:02;;;;;;;1.43;1.43;;;;;;;-0.79;78.86;99552.69;6133800;28;20281;-75
2021/01/12 13:25:10;;;;;;;1.33;1.33;;;;;;;-0.87;78.74;99556.22;6142904;28;20211;-76
2021/01/12 13:28:15;;;;;;;1.23;1.10;;;;;;;-0.78;78.13;99570.44;6141013;29;20232;-75
2021/01/12 13:31:19;;;;;;;1.40;1.40;;;;;;;-0.77;77.95;99566.75;6131475;29;20227;-77
2021/01/12 13:34:23;;;;;;;1.17;1.17;;;;;;;-0.77;77.87;99572.09;6127868;29;20222;-75
2021/01/12 13:37:26;;;;;;;2.57;1.50;;;;;;;-0.96;78.49;99573.34;6133436;29;20216;-75
2021/01/12 13:40:29;;;;;;;1.70;1.60;;;;;;;-0.94;78.54;99581.22;6136295;28;20285;-75
2021/01/12 13:43:33;;;;;;;1.37;1.37;;;;;;;-0.96;79.02;99580.56;6140552;28;20201;-75
2021/01/12 13:46:42;;;;;;;1.40;1.30;;;;;;;-1.22;79.65;99577.31;6137629;29;20570;-75
2021/01/12 13:49:45;;;;;;;1.40;1.40;;;;;;;-1.39;78.38;99588.03;6127617;28;20758;-74
2021/01/12 13:52:49;;;;;;;1.53;1.53;;;;;;;-1.09;79.08;99593.66;6133845;29;20299;-75
2021/01/12 13:55:53;;;;;;;2.83;1.40;;;;;;;-0.94;78.65;99586.56;6135379;28;20232;-75
2021/01/12 13:58:57;;;;;;;4.53;1.80;;;;;;;-1.08;79.51;99596.16;6134862;29;20239;-75
2021/01/12 14:02:08;;;;;;;2.00;1.70;;;;;;;-1.04;79.09;99605.50;6138741;29;20540;-76
2021/01/12 14:05:13;;;;;;;1.23;1.20;;;;;;;-1.28;79.45;99595.72;6140327;28;20203;-75
2021/01/12 14:08:17;;;;;;;1.27;1.27;;;;;;;-1.24;78.89;99600.72;6132818;29;20193;-76
2021/01/12 14:11:21;;;;;;;2.53;1.47;;;;;;;-1.57;80.03;99610.66;6135134;29;20775;-79
2021/01/12 14:14:26;;;;;;;2.63;1.73;;;;;;;-1.29;80.11;99620.81;6146122;28;20201;-76
2021/01/12 14:17:32;;;;;;;1.60;1.50;;;;;;;-1.56;79.05;99613.16;6135910;28;20676;-75
2021/01/12 14:20:48;;;;;;;2.17;1.33;;;;;;;-1.55;80.30;99620.19;6137027;29;20278;-77
2021/01/12 14:23:53;;;;;;;1.20;1.20;;;;;;;-1.40;81.23;99623.84;6138529;29;20199;-76
2021/01/12 14:26:57;;;;;;;1.50;1.40;;;;;;;-1.18;80.18;99621.47;6138778;29;20583;-75
2021/01/12 14:30:03;;;;;;;1.30;1.30;;;;;;;-1.21;80.32;99616.44;6138892;29;20227;-75
2021/01/12 14:33:09;;;;;;;1.50;1.40;;;;;;;-1.02;79.76;99632.09;6137238;28;20203;-76
2021/01/12 14:36:19;;;;;;;1.50;1.50;;;;;;;-0.99;79.03;99642.47;6140006;28;20294;-76
2021/01/12 14:39:26;;;;;;;1.90;1.60;;;;;;;-1.02;78.82;99642.81;6136724;28;20247;-75